createdAt,value
2017-06-06T00:00:33.266Z,996.21
2017-06-06T00:01:13.758Z,996.18
2017-06-06T00:01:54.319Z,996.18
2017-06-06T00:02:34.735Z,996.19
2017-06-06T00:03:15.214Z,996.16
2017-06-06T00:03:55.707Z,996.18
2017-06-06T00:04:36.201Z,996.18
2017-06-06T00:05:16.679Z,996.17
2017-06-06T00:05:57.162Z,996.17
2017-06-06T00:06:37.649Z,996.15
2017-06-06T00:07:18.138Z,996.14
2017-06-06T00:07:58.623Z,996.13
2017-06-06T00:08:39.118Z,996.14
2017-06-06T00:09:19.609Z,996.14
2017-06-06T00:10:00.989Z,996.08
2017-06-06T00:10:41.493Z,996.08
2017-06-06T00:11:21.976Z,996.05
2017-06-06T00:12:02.488Z,996.03
2017-06-06T00:12:42.979Z,996.03
2017-06-06T00:13:23.486Z,996.05
2017-06-06T00:14:03.979Z,995.99
2017-06-06T00:14:44.476Z,996.01
2017-06-06T00:15:24.970Z,996.01
2017-06-06T00:16:05.455Z,995.98
2017-06-06T00:16:45.951Z,995.95
2017-06-06T00:17:26.448Z,995.93
2017-06-06T00:18:06.945Z,995.94
2017-06-06T00:18:47.436Z,995.91
2017-06-06T00:19:27.938Z,995.86
2017-06-06T00:20:08.422Z,995.87
2017-06-06T00:20:48.910Z,995.88
2017-06-06T00:21:29.395Z,995.84
2017-06-06T00:22:09.881Z,995.78
2017-06-06T00:22:50.383Z,995.78
2017-06-06T00:23:30.872Z,995.76
2017-06-06T00:24:11.361Z,995.78
2017-06-06T00:24:51.938Z,995.75
2017-06-06T00:25:32.416Z,995.76
2017-06-06T00:26:12.910Z,995.74
2017-06-06T00:26:53.428Z,995.68
2017-06-06T00:27:33.896Z,995.71
2017-06-06T00:28:14.392Z,995.71
2017-06-06T00:28:54.871Z,995.66
2017-06-06T00:29:35.360Z,995.66
2017-06-06T00:30:15.854Z,995.65
2017-06-06T00:30:56.348Z,995.6
2017-06-06T00:31:36.836Z,995.62
2017-06-06T00:32:17.330Z,995.61
2017-06-06T00:32:57.824Z,995.59
2017-06-06T00:33:38.363Z,995.58
2017-06-06T00:34:18.817Z,995.55
2017-06-06T00:34:59.306Z,995.54
2017-06-06T00:35:39.806Z,995.51
2017-06-06T00:36:20.302Z,995.51
2017-06-06T00:37:00.783Z,995.52
2017-06-06T00:37:41.307Z,995.48
2017-06-06T00:38:21.765Z,995.48
2017-06-06T00:39:02.256Z,995.48
2017-06-06T00:39:42.752Z,995.46
2017-06-06T00:40:23.250Z,995.45
2017-06-06T00:41:03.732Z,995.45
2017-06-06T00:41:44.226Z,995.42
2017-06-06T00:42:24.726Z,995.42
2017-06-06T00:43:05.218Z,995.43
2017-06-06T00:43:45.755Z,995.43
2017-06-06T00:44:26.207Z,995.38
2017-06-06T00:45:06.707Z,995.35
2017-06-06T00:45:47.203Z,995.38
2017-06-06T00:46:27.670Z,995.4
2017-06-06T00:47:08.161Z,995.35
2017-06-06T00:47:48.655Z,995.34
2017-06-06T00:48:29.162Z,995.34
2017-06-06T00:49:09.640Z,995.34
2017-06-06T00:49:50.136Z,995.3
2017-06-06T00:50:30.650Z,995.25
2017-06-06T00:51:11.143Z,995.24
2017-06-06T00:51:51.620Z,995.22
2017-06-06T00:52:32.113Z,995.21
2017-06-06T00:53:12.614Z,995.21
2017-06-06T00:53:53.116Z,995.18
2017-06-06T00:54:33.603Z,995.2
2017-06-06T00:55:14.068Z,995.17
2017-06-06T00:55:54.555Z,995.17
2017-06-06T00:56:35.044Z,995.14
2017-06-06T00:57:15.532Z,995.15
2017-06-06T00:57:56.037Z,995.13
2017-06-06T00:58:36.515Z,995.12
2017-06-06T00:59:17.004Z,995.18
2017-06-06T00:59:57.497Z,995.18
2017-06-06T01:00:37.986Z,995.18
2017-06-06T01:01:18.514Z,995.17
2017-06-06T01:01:58.970Z,995.18
2017-06-06T01:02:39.467Z,995.18
2017-06-06T01:03:19.978Z,995.14
2017-06-06T01:04:00.470Z,995.14
2017-06-06T01:04:40.957Z,995.13
2017-06-06T01:05:21.445Z,995.13
2017-06-06T01:06:01.933Z,995.12
2017-06-06T01:06:42.419Z,995.11
2017-06-06T01:07:22.948Z,995.07
2017-06-06T01:08:03.474Z,995.07
2017-06-06T01:08:43.951Z,995.09
2017-06-06T01:09:24.418Z,995.03
2017-06-06T01:10:04.915Z,995.04
2017-06-06T01:10:45.410Z,995.02
2017-06-06T01:11:25.902Z,994.99
2017-06-06T01:12:06.394Z,995.01
2017-06-06T01:12:46.887Z,995.01
2017-06-06T01:13:27.375Z,994.96
2017-06-06T01:14:07.880Z,994.98
2017-06-06T01:14:48.369Z,994.95
2017-06-06T01:15:28.857Z,994.94
2017-06-06T01:16:09.337Z,994.92
2017-06-06T01:16:49.874Z,994.95
2017-06-06T01:17:30.321Z,994.93
2017-06-06T01:18:10.790Z,994.94
2017-06-06T01:18:51.278Z,994.93
2017-06-06T01:19:31.802Z,994.94
2017-06-06T01:20:12.326Z,994.92
2017-06-06T01:20:52.815Z,994.88
2017-06-06T01:21:33.304Z,994.87
2017-06-06T01:22:13.815Z,994.85
2017-06-06T01:22:54.303Z,994.87
2017-06-06T01:23:34.806Z,994.87
2017-06-06T01:24:15.292Z,994.83
2017-06-06T01:24:55.773Z,994.82
2017-06-06T01:25:36.291Z,994.84
2017-06-06T01:26:16.748Z,994.85
2017-06-06T01:26:57.237Z,994.82
2017-06-06T01:27:37.740Z,994.82
2017-06-06T01:28:18.217Z,994.82
2017-06-06T01:28:58.708Z,994.81
2017-06-06T01:29:39.194Z,994.75
2017-06-06T01:30:19.693Z,994.78
2017-06-06T01:31:00.190Z,994.74
2017-06-06T01:31:40.696Z,994.74
2017-06-06T01:32:21.182Z,994.76
2017-06-06T01:33:01.664Z,994.77
2017-06-06T01:33:42.181Z,994.73
2017-06-06T01:34:22.633Z,994.71
2017-06-06T01:35:03.108Z,994.73
2017-06-06T01:35:43.597Z,994.71
2017-06-06T01:36:24.083Z,994.71
2017-06-06T01:37:04.583Z,994.66
2017-06-06T01:37:45.072Z,994.68
2017-06-06T01:38:25.560Z,994.68
2017-06-06T01:39:06.058Z,994.66
2017-06-06T01:39:46.548Z,994.65
2017-06-06T01:40:27.034Z,994.61
2017-06-06T01:41:07.535Z,994.63
2017-06-06T01:41:48.012Z,994.6
2017-06-06T01:42:28.512Z,994.62
2017-06-06T01:43:09.028Z,994.64
2017-06-06T01:43:49.486Z,994.59
2017-06-06T01:44:29.968Z,994.67
2017-06-06T01:45:10.461Z,994.63
2017-06-06T01:45:50.949Z,994.6
2017-06-06T01:46:31.426Z,994.62
2017-06-06T01:47:11.920Z,994.61
2017-06-06T01:47:52.414Z,994.58
2017-06-06T01:48:32.917Z,994.58
2017-06-06T01:49:13.418Z,994.6
2017-06-06T01:49:53.916Z,994.6
2017-06-06T01:50:34.399Z,994.6
2017-06-06T01:51:14.876Z,994.6
2017-06-06T01:51:55.356Z,994.58
2017-06-06T01:52:35.859Z,994.55
2017-06-06T01:53:16.332Z,994.58
2017-06-06T01:53:56.823Z,994.6
2017-06-06T01:54:37.299Z,994.56
2017-06-06T01:55:17.799Z,994.58
2017-06-06T01:55:58.273Z,994.61
2017-06-06T01:56:38.801Z,994.61
2017-06-06T01:57:19.296Z,994.61
2017-06-06T01:57:59.792Z,994.57
2017-06-06T01:58:40.279Z,994.6
2017-06-06T01:59:20.769Z,994.54
2017-06-06T02:00:01.255Z,994.52
2017-06-06T02:00:41.749Z,994.52
2017-06-06T02:01:22.240Z,994.51
2017-06-06T02:02:02.714Z,994.47
2017-06-06T02:02:43.204Z,994.49
2017-06-06T02:03:23.715Z,994.43
2017-06-06T02:04:04.199Z,994.42
2017-06-06T02:04:44.729Z,994.38
2017-06-06T02:05:25.175Z,994.41
2017-06-06T02:06:05.662Z,994.37
2017-06-06T02:06:46.147Z,994.4
2017-06-06T02:07:26.638Z,994.38
2017-06-06T02:08:07.126Z,994.4
2017-06-06T02:08:47.615Z,994.38
2017-06-06T02:09:28.120Z,994.39
2017-06-06T02:10:08.612Z,994.34
2017-06-06T02:10:49.096Z,994.34
2017-06-06T02:11:29.602Z,994.31
2017-06-06T02:12:10.086Z,994.33
2017-06-06T02:12:50.583Z,994.27
2017-06-06T02:13:31.072Z,994.25
2017-06-06T02:14:11.580Z,994.25
2017-06-06T02:14:52.066Z,994.24
2017-06-06T02:15:32.570Z,994.27
2017-06-06T02:16:13.050Z,994.25
2017-06-06T02:16:53.559Z,994.24
2017-06-06T02:17:34.055Z,994.25
2017-06-06T02:18:14.534Z,994.2
2017-06-06T02:18:55.019Z,994.21
2017-06-06T02:19:35.514Z,994.17
2017-06-06T02:20:16.044Z,994.13
2017-06-06T02:20:56.493Z,994.12
2017-06-06T02:21:36.960Z,994.14
2017-06-06T02:22:17.448Z,994.12
2017-06-06T02:22:57.939Z,994.12
2017-06-06T02:23:38.421Z,994.11
2017-06-06T02:24:18.910Z,994.1
2017-06-06T02:24:59.410Z,994.07
2017-06-06T02:25:39.890Z,994.07
2017-06-06T02:26:20.378Z,994.07
2017-06-06T02:27:00.879Z,994.05
2017-06-06T02:27:41.365Z,994.05
2017-06-06T02:28:21.875Z,994.07
2017-06-06T02:29:02.357Z,994.08
2017-06-06T02:29:42.841Z,994.05
2017-06-06T02:30:23.376Z,994.03
2017-06-06T02:31:03.804Z,994.02
2017-06-06T02:31:44.303Z,994.01
2017-06-06T02:32:24.803Z,993.97
2017-06-06T02:33:05.289Z,993.98
2017-06-06T02:33:45.775Z,993.98
2017-06-06T02:34:26.248Z,993.94
2017-06-06T02:35:06.728Z,993.95
2017-06-06T02:35:47.220Z,993.96
2017-06-06T02:36:27.713Z,993.95
2017-06-06T02:37:08.196Z,993.94
2017-06-06T02:37:48.689Z,993.9
2017-06-06T02:38:29.188Z,993.96
2017-06-06T02:39:09.711Z,993.92
2017-06-06T02:39:50.205Z,993.9
2017-06-06T02:40:30.688Z,993.9
2017-06-06T02:41:11.171Z,993.9
2017-06-06T02:41:51.657Z,993.88
2017-06-06T02:42:32.135Z,993.9
2017-06-06T02:43:12.639Z,993.92
2017-06-06T02:43:53.129Z,993.92
2017-06-06T02:44:33.616Z,993.92
2017-06-06T02:45:14.105Z,993.95
2017-06-06T02:45:54.602Z,993.9
2017-06-06T02:46:35.099Z,993.88
2017-06-06T02:47:15.587Z,993.88
2017-06-06T02:47:56.089Z,993.91
2017-06-06T02:48:36.574Z,993.89
2017-06-06T02:49:17.084Z,993.88
2017-06-06T02:49:57.543Z,993.86
2017-06-06T02:50:38.032Z,993.85
2017-06-06T02:51:18.547Z,993.9
2017-06-06T02:51:58.992Z,993.85
2017-06-06T02:52:39.503Z,993.88
2017-06-06T02:53:19.958Z,993.88
2017-06-06T02:54:00.454Z,993.88
2017-06-06T02:54:40.959Z,993.9
2017-06-06T02:55:21.421Z,993.9
2017-06-06T02:56:01.897Z,993.86
2017-06-06T02:56:42.391Z,993.89
2017-06-06T02:57:22.878Z,993.85
2017-06-06T02:58:03.367Z,993.83
2017-06-06T02:58:43.863Z,993.84
2017-06-06T02:59:24.343Z,993.83
2017-06-06T03:00:04.827Z,993.82
2017-06-06T03:00:45.300Z,993.78
2017-06-06T03:01:25.809Z,993.77
2017-06-06T03:02:06.306Z,993.79
2017-06-06T03:02:46.789Z,993.78
2017-06-06T03:03:27.275Z,993.74
2017-06-06T03:04:07.747Z,993.74
2017-06-06T03:04:48.242Z,993.73
2017-06-06T03:05:28.724Z,993.72
2017-06-06T03:06:09.217Z,993.69
2017-06-06T03:06:49.722Z,993.66
2017-06-06T03:07:30.199Z,993.66
2017-06-06T03:08:10.680Z,993.64
2017-06-06T03:08:51.159Z,993.63
2017-06-06T03:09:31.650Z,993.64
2017-06-06T03:10:12.129Z,993.64
2017-06-06T03:10:52.615Z,993.62
2017-06-06T03:11:33.101Z,993.6
2017-06-06T03:12:13.594Z,993.58
2017-06-06T03:12:54.092Z,993.59
2017-06-06T03:13:34.577Z,993.6
2017-06-06T03:14:15.098Z,993.6
2017-06-06T03:14:55.569Z,993.6
2017-06-06T03:15:36.063Z,993.56
2017-06-06T03:16:16.556Z,993.61
2017-06-06T03:16:57.089Z,993.56
2017-06-06T03:17:37.555Z,993.57
2017-06-06T03:18:18.025Z,993.54
2017-06-06T03:18:58.525Z,993.53
2017-06-06T03:19:39.012Z,993.52
2017-06-06T03:20:19.509Z,993.52
2017-06-06T03:21:00.004Z,993.49
2017-06-06T03:21:40.488Z,993.47
2017-06-06T03:22:21.846Z,993.47
2017-06-06T03:23:02.333Z,993.47
2017-06-06T03:23:42.828Z,993.46
2017-06-06T03:24:23.321Z,993.44
2017-06-06T03:25:03.808Z,993.47
2017-06-06T03:25:44.298Z,993.4
2017-06-06T03:26:24.794Z,993.44
2017-06-06T03:27:05.300Z,993.43
2017-06-06T03:27:45.831Z,993.42
2017-06-06T03:28:26.275Z,993.43
2017-06-06T03:29:06.750Z,993.4
2017-06-06T03:29:47.252Z,993.38
2017-06-06T03:30:27.748Z,993.37
2017-06-06T03:31:08.237Z,993.4
2017-06-06T03:31:48.717Z,993.39
2017-06-06T03:32:29.206Z,993.38
2017-06-06T03:33:09.693Z,993.39
2017-06-06T03:33:50.190Z,993.4
2017-06-06T03:34:30.702Z,993.38
2017-06-06T03:35:11.165Z,993.39
2017-06-06T03:35:51.643Z,993.37
2017-06-06T03:36:32.147Z,993.33
2017-06-06T03:37:12.637Z,993.34
2017-06-06T03:37:53.125Z,993.34
2017-06-06T03:38:33.624Z,993.32
2017-06-06T03:39:14.120Z,993.34
2017-06-06T03:39:54.604Z,993.3
2017-06-06T03:40:35.103Z,993.32
2017-06-06T03:41:15.600Z,993.31
2017-06-06T03:41:56.085Z,993.35
2017-06-06T03:42:36.568Z,993.34
2017-06-06T03:43:17.070Z,993.35
2017-06-06T03:43:57.549Z,993.3
2017-06-06T03:44:38.042Z,993.32
2017-06-06T03:45:18.542Z,993.32
2017-06-06T03:45:59.015Z,993.3
2017-06-06T03:46:39.507Z,993.25
2017-06-06T03:47:20.004Z,993.25
2017-06-06T03:48:00.485Z,993.25
2017-06-06T03:48:40.971Z,993.22
2017-06-06T03:49:21.473Z,993.21
2017-06-06T03:50:01.976Z,993.2
2017-06-06T03:50:42.468Z,993.17
2017-06-06T03:51:22.976Z,993.15
2017-06-06T03:52:03.469Z,993.14
2017-06-06T03:52:43.962Z,993.13
2017-06-06T03:54:56.711Z,993.12
2017-06-06T03:55:37.197Z,993.12
2017-06-06T03:56:17.681Z,993.14
2017-06-06T03:56:58.145Z,993.13
2017-06-06T03:57:38.627Z,993.17
2017-06-06T03:58:19.100Z,993.18
2017-06-06T03:58:59.590Z,993.19
2017-06-06T03:59:40.065Z,993.19
2017-06-06T04:00:20.535Z,993.18
2017-06-06T04:01:01.002Z,993.19
2017-06-06T04:01:42.146Z,993.2
2017-06-06T04:02:22.623Z,993.18
2017-06-06T04:03:03.107Z,993.19
2017-06-06T04:05:20.933Z,993.15
2017-06-06T04:06:01.406Z,993.15
2017-06-06T04:06:41.880Z,993.13
2017-06-06T04:07:22.402Z,993.12
2017-06-06T04:08:02.891Z,993.12
2017-06-06T04:08:43.391Z,993.1
2017-06-06T04:09:23.880Z,993.11
2017-06-06T04:10:04.356Z,993.1
2017-06-06T04:10:44.825Z,993.08
2017-06-06T04:11:25.320Z,993.07
2017-06-06T04:12:05.814Z,993.03
2017-06-06T04:12:46.298Z,993.06
2017-06-06T04:13:27.480Z,993.06
2017-06-06T04:14:07.979Z,993.04
2017-06-06T04:14:48.465Z,993.04
2017-06-06T04:15:28.947Z,993.06
2017-06-06T04:16:09.481Z,993.09
2017-06-06T04:16:49.927Z,993.06
2017-06-06T04:17:30.437Z,993.09
2017-06-06T04:18:10.903Z,993.09
2017-06-06T04:18:51.389Z,993.13
2017-06-06T04:19:31.898Z,993.08
2017-06-06T04:20:12.354Z,993.12
2017-06-06T04:20:52.848Z,993.08
2017-06-06T04:21:33.321Z,993.09
2017-06-06T04:22:13.822Z,993.1
2017-06-06T04:22:54.319Z,993.11
2017-06-06T04:23:34.804Z,993.07
2017-06-06T04:24:15.296Z,993.09
2017-06-06T04:24:55.783Z,993.12
2017-06-06T04:25:36.281Z,993.11
2017-06-06T04:26:16.768Z,993.16
2017-06-06T04:26:57.250Z,993.19
2017-06-06T04:27:37.735Z,993.15
2017-06-06T04:28:18.258Z,993.14
2017-06-06T04:28:58.708Z,993.18
2017-06-06T04:29:39.189Z,993.15
2017-06-06T04:30:19.688Z,993.17
2017-06-06T04:31:00.182Z,993.2
2017-06-06T04:31:40.693Z,993.18
2017-06-06T04:32:21.168Z,993.18
2017-06-06T04:33:01.669Z,993.21
2017-06-06T04:33:42.163Z,993.24
2017-06-06T04:34:22.636Z,993.26
2017-06-06T04:35:03.137Z,993.28
2017-06-06T04:35:43.625Z,993.27
2017-06-06T04:36:24.138Z,993.28
2017-06-06T04:37:04.615Z,993.29
2017-06-06T04:37:45.098Z,993.26
2017-06-06T04:38:25.599Z,993.26
2017-06-06T04:39:06.139Z,993.29
2017-06-06T04:39:46.610Z,993.27
2017-06-06T04:40:27.104Z,993.28
2017-06-06T04:41:07.583Z,993.28
2017-06-06T04:41:48.075Z,993.31
2017-06-06T04:42:28.557Z,993.33
2017-06-06T04:43:09.048Z,993.34
2017-06-06T04:43:49.557Z,993.29
2017-06-06T04:44:30.011Z,993.28
2017-06-06T04:45:10.477Z,993.28
2017-06-06T04:45:50.981Z,993.28
2017-06-06T04:46:31.455Z,993.33
2017-06-06T04:47:11.979Z,993.32
2017-06-06T04:47:52.421Z,993.36
2017-06-06T04:48:32.939Z,993.33
2017-06-06T04:49:13.429Z,993.36
2017-06-06T04:49:53.916Z,993.31
2017-06-06T04:50:34.402Z,993.31
2017-06-06T04:51:14.885Z,993.31
2017-06-06T04:51:55.375Z,993.28
2017-06-06T04:52:35.873Z,993.3
2017-06-06T04:53:16.354Z,993.28
2017-06-06T04:53:56.855Z,993.29
2017-06-06T04:54:37.336Z,993.31
2017-06-06T04:57:05.303Z,993.37
2017-06-06T04:57:45.795Z,993.37
2017-06-06T04:58:26.280Z,993.37
2017-06-06T04:59:06.772Z,993.4
2017-06-06T04:59:47.281Z,993.37
2017-06-06T05:01:44.924Z,993.43
2017-06-06T05:02:25.435Z,993.43
2017-06-06T05:03:05.921Z,993.44
2017-06-06T05:03:46.421Z,993.45
2017-06-06T05:04:26.914Z,993.44
2017-06-06T05:05:07.388Z,993.39
2017-06-06T05:05:47.873Z,993.4
2017-06-06T05:06:28.391Z,993.38
2017-06-06T05:07:08.876Z,993.37
2017-06-06T05:07:49.375Z,993.38
2017-06-06T05:08:29.868Z,993.38
2017-06-06T05:09:10.344Z,993.38
2017-06-06T05:09:50.827Z,993.4
2017-06-06T05:10:31.323Z,993.43
2017-06-06T05:11:11.812Z,993.44
2017-06-06T05:11:52.295Z,993.48
2017-06-06T05:12:32.788Z,993.5
2017-06-06T05:13:13.289Z,993.46
2017-06-06T05:13:53.782Z,993.46
2017-06-06T05:14:34.276Z,993.41
2017-06-06T05:15:14.762Z,993.42
2017-06-06T05:15:55.238Z,993.41
2017-06-06T05:16:35.733Z,993.41
2017-06-06T05:17:16.234Z,993.41
2017-06-06T05:17:56.718Z,993.43
2017-06-06T05:18:37.226Z,993.36
2017-06-06T05:19:17.738Z,993.34
2017-06-06T05:19:58.223Z,993.38
2017-06-06T05:20:38.714Z,993.4
2017-06-06T05:21:19.197Z,993.41
2017-06-06T05:21:59.681Z,993.41
2017-06-06T05:22:40.193Z,993.43
2017-06-06T05:23:20.665Z,993.39
2017-06-06T05:24:01.152Z,993.37
2017-06-06T05:24:41.631Z,993.36
2017-06-06T05:25:22.120Z,993.39
2017-06-06T05:26:02.606Z,993.39
2017-06-06T05:26:43.937Z,993.39
2017-06-06T05:27:24.408Z,993.41
2017-06-06T05:28:04.905Z,993.45
2017-06-06T05:28:45.387Z,993.46
2017-06-06T05:29:25.872Z,993.43
2017-06-06T05:30:06.362Z,993.41
2017-06-06T05:30:46.850Z,993.39
2017-06-06T05:31:27.370Z,993.41
2017-06-06T05:32:07.826Z,993.39
2017-06-06T05:32:48.314Z,993.34
2017-06-06T05:33:28.816Z,993.37
2017-06-06T05:34:09.301Z,993.32
2017-06-06T05:34:49.801Z,993.36
2017-06-06T05:35:30.295Z,993.35
2017-06-06T05:36:10.805Z,993.33
2017-06-06T05:36:51.301Z,993.28
2017-06-06T05:37:31.798Z,993.27
2017-06-06T05:38:12.282Z,993.26
2017-06-06T05:38:52.764Z,993.3
2017-06-06T05:39:33.282Z,993.31
2017-06-06T05:40:13.766Z,993.28
2017-06-06T05:40:54.240Z,993.27
2017-06-06T05:41:34.780Z,993.26
2017-06-06T05:42:15.415Z,993.25
2017-06-06T05:42:55.911Z,993.26
2017-06-06T05:43:36.404Z,993.28
2017-06-06T05:44:16.889Z,993.31
2017-06-06T05:44:57.384Z,993.29
2017-06-06T05:45:37.865Z,993.25
2017-06-06T05:46:18.365Z,993.26
2017-06-06T05:46:58.873Z,993.27
2017-06-06T05:47:39.343Z,993.25
2017-06-06T05:48:19.840Z,993.22
2017-06-06T05:49:00.334Z,993.27
2017-06-06T05:49:40.814Z,993.25
2017-06-06T05:50:21.304Z,993.26
2017-06-06T05:51:01.815Z,993.23
2017-06-06T05:51:42.301Z,993.2
2017-06-06T05:52:22.852Z,993.17
2017-06-06T05:53:03.341Z,993.19
2017-06-06T05:53:43.844Z,993.15
2017-06-06T05:54:24.374Z,993.16
2017-06-06T05:55:04.870Z,993.17
2017-06-06T05:55:45.349Z,993.14
2017-06-06T05:56:25.831Z,993.13
2017-06-06T05:57:06.324Z,993.1
2017-06-06T05:57:46.816Z,993.07
2017-06-06T05:58:27.333Z,993.07
2017-06-06T05:59:07.832Z,993.09
2017-06-06T05:59:48.295Z,993.12
2017-06-06T06:00:28.786Z,993.13
2017-06-06T06:01:09.265Z,993.14
2017-06-06T06:01:49.747Z,993.17
2017-06-06T06:02:30.239Z,993.21
2017-06-06T06:03:10.726Z,993.18
2017-06-06T06:03:51.235Z,993.24
2017-06-06T06:04:31.714Z,993.22
2017-06-06T06:05:12.191Z,993.25
2017-06-06T06:05:52.674Z,993.25
2017-06-06T06:06:33.172Z,993.25
2017-06-06T06:07:13.668Z,993.33
2017-06-06T06:07:54.165Z,993.3
2017-06-06T06:08:34.660Z,993.31
2017-06-06T06:09:15.154Z,993.34
2017-06-06T06:09:55.643Z,993.28
2017-06-06T06:10:36.133Z,993.29
2017-06-06T06:11:16.620Z,993.33
2017-06-06T06:11:57.118Z,993.35
2017-06-06T06:12:37.617Z,993.36
2017-06-06T06:13:18.108Z,993.33
2017-06-06T06:13:58.611Z,993.33
2017-06-06T06:14:39.095Z,993.33
2017-06-06T06:15:19.617Z,993.32
2017-06-06T06:16:00.101Z,993.3
2017-06-06T06:16:40.588Z,993.29
2017-06-06T06:17:21.091Z,993.31
2017-06-06T06:18:01.578Z,993.34
2017-06-06T06:18:42.097Z,993.31
2017-06-06T06:19:22.712Z,993.31
2017-06-06T06:20:03.299Z,993.35
2017-06-06T06:20:43.866Z,993.3
2017-06-06T06:21:24.353Z,993.21
2017-06-06T06:22:04.843Z,993.15
2017-06-06T06:22:45.371Z,993.09
2017-06-06T06:23:25.921Z,993.07
2017-06-06T06:24:06.416Z,993.02
2017-06-06T06:24:46.922Z,993.02
2017-06-06T06:25:27.461Z,993.05
2017-06-06T06:26:08.038Z,993
2017-06-06T06:26:48.691Z,993.02
2017-06-06T06:27:29.289Z,993.04
2017-06-06T06:28:09.891Z,993.03
2017-06-06T06:28:50.565Z,993.01
2017-06-06T06:29:31.199Z,993.03
2017-06-06T06:30:11.812Z,992.99
2017-06-06T06:30:52.430Z,993.02
2017-06-06T06:31:33.045Z,992.99
2017-06-06T06:32:13.675Z,992.96
2017-06-06T06:32:54.160Z,992.97
2017-06-06T06:33:34.653Z,992.97
2017-06-06T06:34:15.159Z,993.02
2017-06-06T06:34:55.850Z,993.06
2017-06-06T06:35:36.440Z,993
2017-06-06T06:36:17.218Z,992.97
2017-06-06T06:36:57.635Z,992.92
2017-06-06T06:37:38.149Z,992.92
2017-06-06T06:38:18.653Z,992.96
2017-06-06T06:38:59.170Z,992.96
2017-06-06T06:39:39.898Z,992.96
2017-06-06T06:40:20.411Z,992.97
2017-06-06T06:41:00.986Z,992.97
2017-06-06T06:41:41.551Z,992.93
2017-06-06T06:42:22.032Z,992.96
2017-06-06T06:44:34.792Z,993
2017-06-06T06:45:15.275Z,993.04
2017-06-06T06:45:55.758Z,993.05
2017-06-06T06:46:36.237Z,992.94
2017-06-06T06:47:16.769Z,992.91
2017-06-06T06:47:57.264Z,992.86
2017-06-06T06:48:37.743Z,992.89
2017-06-06T06:49:18.294Z,992.89
2017-06-06T06:49:58.789Z,992.9
2017-06-06T06:50:39.278Z,992.89
2017-06-06T06:51:19.763Z,992.85
2017-06-06T06:52:00.341Z,992.88
2017-06-06T06:52:40.800Z,992.84
2017-06-06T06:53:21.306Z,992.78
2017-06-06T06:54:01.810Z,992.77
2017-06-06T06:54:42.331Z,992.77
2017-06-06T06:55:23.093Z,992.78
2017-06-06T06:56:03.549Z,992.78
2017-06-06T06:56:44.295Z,992.78
2017-06-06T06:57:25.024Z,992.91
2017-06-06T06:58:05.517Z,993.01
2017-06-06T06:58:46.016Z,993.01
2017-06-06T06:59:26.547Z,992.97
2017-06-06T07:00:07.017Z,992.98
2017-06-06T07:00:47.520Z,993.01
2017-06-06T07:01:28.022Z,993.01
2017-06-06T07:02:08.573Z,993.06
2017-06-06T07:02:49.113Z,993.12
2017-06-06T07:03:29.614Z,993.12
2017-06-06T07:04:10.090Z,993.06
2017-06-06T07:04:50.590Z,993.09
2017-06-06T07:05:31.090Z,993.12
2017-06-06T07:06:11.575Z,993.13
2017-06-06T07:06:52.105Z,993.08
2017-06-06T07:07:32.590Z,993.12
2017-06-06T07:08:13.103Z,993.1
2017-06-06T07:08:53.591Z,993.07
2017-06-06T07:09:34.084Z,993.03
2017-06-06T07:10:14.586Z,993.07
2017-06-06T07:10:55.070Z,993.07
2017-06-06T07:11:35.567Z,993.12
2017-06-06T07:12:16.076Z,993.09
2017-06-06T07:12:57.565Z,993.08
2017-06-06T07:13:38.769Z,993.16
2017-06-06T07:14:19.273Z,993.17
2017-06-06T07:16:16.897Z,993.26
2017-06-06T07:16:57.393Z,993.32
2017-06-06T07:17:37.929Z,993.26
2017-06-06T07:18:18.381Z,993.26
2017-06-06T07:18:58.899Z,993.27
2017-06-06T07:19:39.393Z,993.28
2017-06-06T07:20:19.917Z,993.29
2017-06-06T07:21:00.402Z,993.24
2017-06-06T07:21:40.918Z,993.22
2017-06-06T07:22:21.431Z,993.28
2017-06-06T07:23:01.960Z,993.34
2017-06-06T07:23:42.471Z,993.31
2017-06-06T07:24:23.004Z,993.33
2017-06-06T07:25:03.516Z,993.37
2017-06-06T07:25:44.072Z,993.45
2017-06-06T07:26:24.617Z,993.42
2017-06-06T07:27:05.067Z,993.34
2017-06-06T07:27:45.591Z,993.32
2017-06-06T07:28:26.077Z,993.38
2017-06-06T07:29:08.095Z,993.41
2017-06-06T07:29:48.607Z,993.44
2017-06-06T07:30:29.191Z,993.44
2017-06-06T07:31:09.638Z,993.41
2017-06-06T07:31:50.168Z,993.49
2017-06-06T07:32:30.673Z,993.55
2017-06-06T07:33:11.157Z,993.57
2017-06-06T07:33:51.647Z,993.62
2017-06-06T07:34:32.164Z,993.72
2017-06-06T07:35:12.636Z,993.76
2017-06-06T07:35:53.183Z,993.76
2017-06-06T07:36:33.644Z,993.77
2017-06-06T07:37:14.149Z,993.74
2017-06-06T07:37:54.633Z,993.64
2017-06-06T07:38:35.241Z,993.6
2017-06-06T07:40:27.806Z,993.46
2017-06-06T07:41:08.358Z,993.51
2017-06-06T07:41:48.789Z,993.65
2017-06-06T07:42:29.282Z,993.51
2017-06-06T07:43:09.771Z,993.52
2017-06-06T07:43:50.265Z,993.66
2017-06-06T07:44:30.755Z,993.56
2017-06-06T07:45:11.243Z,993.58
2017-06-06T07:45:51.726Z,993.67
2017-06-06T07:46:32.245Z,993.75
2017-06-06T07:47:12.934Z,993.71
2017-06-06T07:47:53.468Z,993.74
2017-06-06T07:48:33.992Z,993.72
2017-06-06T07:49:14.561Z,993.7
2017-06-06T07:49:55.082Z,993.7
2017-06-06T07:50:35.598Z,993.64
2017-06-06T07:51:16.058Z,993.63
2017-06-06T07:51:56.543Z,993.54
2017-06-06T07:52:37.046Z,993.55
2017-06-06T07:53:17.511Z,993.54
2017-06-06T07:53:57.987Z,993.54
2017-06-06T07:54:38.477Z,993.53
2017-06-06T07:55:19.055Z,993.67
2017-06-06T07:55:59.620Z,993.68
2017-06-06T07:56:40.189Z,993.62
2017-06-06T07:57:20.726Z,993.76
2017-06-06T07:58:01.241Z,993.7
2017-06-06T07:58:41.751Z,993.73
2017-06-06T07:59:22.300Z,993.73
2017-06-06T08:00:02.855Z,993.67
2017-06-06T08:00:43.359Z,993.59
2017-06-06T08:01:23.903Z,993.57
2017-06-06T08:02:06.752Z,993.53
2017-06-06T08:02:47.270Z,993.46
2017-06-06T08:05:00.027Z,993.41
2017-06-06T08:05:40.533Z,993.43
2017-06-06T08:06:21.097Z,993.4
2017-06-06T08:07:01.619Z,993.37
2017-06-06T08:07:42.178Z,993.26
2017-06-06T08:08:22.688Z,993.26
2017-06-06T08:09:03.181Z,993.27
2017-06-06T08:09:43.689Z,993.19
2017-06-06T08:10:24.185Z,993.17
2017-06-06T08:11:04.673Z,993.19
2017-06-06T08:11:45.167Z,993.13
2017-06-06T08:12:25.658Z,993.07
2017-06-06T08:13:06.156Z,993.03
2017-06-06T08:13:46.691Z,993.02
2017-06-06T08:14:27.186Z,993.03
2017-06-06T08:15:07.681Z,993.01
2017-06-06T08:15:48.174Z,993.18
2017-06-06T08:16:28.719Z,993.05
2017-06-06T08:17:09.237Z,993.09
2017-06-06T08:17:49.742Z,993.02
2017-06-06T08:18:30.220Z,993.07
2017-06-06T08:19:10.730Z,993.14
2017-06-06T08:19:51.236Z,993.11
2017-06-06T08:20:31.748Z,993.08
2017-06-06T08:21:12.244Z,993.11
2017-06-06T08:21:52.732Z,993.17
2017-06-06T08:22:33.226Z,993.17
2017-06-06T08:23:13.728Z,993.23
2017-06-06T08:23:54.220Z,993.27
2017-06-06T08:24:34.729Z,993.17
2017-06-06T08:25:15.229Z,993.14
2017-06-06T08:25:55.707Z,993.18
2017-06-06T08:26:36.192Z,993.19
2017-06-06T08:27:16.728Z,993.16
2017-06-06T08:27:57.235Z,993.17
2017-06-06T08:28:37.749Z,993.2
2017-06-06T08:29:18.498Z,993.11
2017-06-06T08:29:59.074Z,993.19
2017-06-06T08:30:39.610Z,993.2
2017-06-06T08:31:20.128Z,993.23
2017-06-06T08:32:00.631Z,993.2
2017-06-06T08:32:41.149Z,993.16
2017-06-06T08:33:21.688Z,993.17
2017-06-06T08:34:02.220Z,993.17
2017-06-06T08:34:42.727Z,993.17
2017-06-06T08:35:23.230Z,993.21
2017-06-06T08:36:03.742Z,993.19
2017-06-06T08:36:44.239Z,993.2
2017-06-06T08:37:24.747Z,993.27
2017-06-06T08:38:05.271Z,993.3
2017-06-06T08:38:45.787Z,993.32